Airfield :
LOGIN :

Register | Disclaimer

   EN    FR    IT 

 










Legend :    VFR   Marginal VFR   IFR   Intensive IFR   Very Intensive IFR
Visi :
Ceiling :
>= 8 km
>= 3000ft
5 to 8 km
1000 to 3000 ft
1500m to 5 km
500 to 1000 ft
800 to 1500m
200 to 500 ft
< 800m
< 200 ft
Symbols :   Thunderstorms  Fog  Heavy snow  Heavy precipitations  Wind > 20 kt
SIGMETs :     Misc.  Thunderstorms  Icing  Turbulence  Mountain Waves  Volcanic Ashes







- Airport Elevation : 124 ft
- IATA code : RNS
- Download approach charts


LFRN - Rennes

CURRENT METAR :
  • 210930Z AUTO VRB02KT 9999 FEW020 23/17 Q1022 NOSIG

EXPIRED METARs :
  • 210900Z AUTO VRB03KT CAVOK 22/17 Q1023 NOSIG
  • 210830Z AUTO VRB03KT CAVOK 21/16 Q1023 NOSIG
  • 210800Z AUTO VRB02KT CAVOK 20/16 Q1023 TEMPO DZ BKN008
  • 210730Z AUTO VRB02KT CAVOK 19/15 Q1023 TEMPO DZ BKN008
  • 210700Z AUTO VRB01KT CAVOK 19/15 Q1023 TEMPO DZ BKN008

TAF TAF LFRN
Valid from the 21 at 06:00 until the 22 at 06:00 UTC


210500Z 2106/2206 VRB03KT 9999 BKN040
TEMPO 2106/2109 BKN012
PROB30
TEMPO 2106/2109 5000 DZ BKN008
TEMPO 2118/2121 03008KT
BECMG 2202/2204 09008KT
ATIS : +33 2 99 67 72 50
No reported NOTAMs for that airfield.



MET'MAP, your aeronautical weather chart ! - Copyright ORBIFLY December 2007 - Disclaimer

ORBIFLY MET'MAP TEAM :

Programming & Development : Alexandra Zaïnal
Concept & Development : Baudouin d'Aumeries
Co-Development & Prog : Marc-Olivier Méhu
Technical & hardware support : Manuel Goepfert

Contact : metmap@orbifly.com




SOURCES & CREDITS :

   NOAA